F/V Lycia — FO3848 — position and weather

sailwx.info

Track history (hours):
 
Tides and Currents Weather Stations Pressure Air Temp Water Temp Dewpoint Dewpoint Depression Visibility Wind Speed Wind Dir Waves Ship Positions

F/V Lycia

Last reported at 2018-Jun-21 21:58 UTC. Time now 2018-Jun-22 16:27 UTC.
Position N 47°49' W 003°54'.

Length 10 m.

Type: Fishing. MMSI: 228208800.

Date/timePositionNaut miles runAvg speedWind from/ knotsBaromVisibWave heightAir tempDewpointWater temp
2018-Jun-21 21:58N 47°49' W 003°54'14 9.4
2018-Jun-21 20:27N 47°44' W 003°34'3 7.8
2018-Jun-21 20:01N 47°42' W 003°30'0 0.6
2018-Jun-21 19:30N 47°42' W 003°30'1 1.1
2018-Jun-21 19:01N 47°43' W 003°30'0 0.1
2018-Jun-21 18:30N 47°43' W 003°30'0 0.2
2018-Jun-21 18:01N 47°43' W 003°30'3 5.0
2018-Jun-21 17:30N 47°45' W 003°33'3 6.6
2018-Jun-21 17:00N 47°46' W 003°38'5 9.5
2018-Jun-21 16:30N 47°46' W 003°45'3 0.2
2018-Jun-20 21:33N 47°45' W 003°40'2 9.8
2018-Jun-20 21:22N 47°44' W 003°38'4 9.7
2018-Jun-20 21:00N 47°43' W 003°33'1 1.5
2018-Jun-20 20:30N 47°43' W 003°32'0 0.9
2018-Jun-20 20:00N 47°43' W 003°31'1 1.5
2018-Jun-20 19:30N 47°43' W 003°32'5 9.1
2018-Jun-20 19:00N 47°45' W 003°38'2 4.0
2018-Jun-20 18:30N 47°46' W 003°41'1 1.7
2018-Jun-20 18:00N 47°46' W 003°40'1 2.5
2018-Jun-20 17:30N 47°45' W 003°39'2 4.9
2018-Jun-20 17:00N 47°46' W 003°42'4 8.6
2018-Jun-20 16:30N 47°47' W 003°48'4 8.4
2018-Jun-20 15:59N 47°49' W 003°54'3 0.2
2018-Jun-19 21:38N 47°52' W 003°55'6 8.3
2018-Jun-19 20:53N 47°47' W 003°50'5 8.9
2018-Jun-19 20:20N 47°46' W 003°43'0 0.3
2018-Jun-19 19:22N 47°46' W 003°43'0 0.3
2018-Jun-19 18:58N 47°46' W 003°43'2 3.4
2018-Jun-19 18:30N 47°46' W 003°40'1 2.2
2018-Jun-19 18:00N 47°45' W 003°40'1 1.2
2018-Jun-19 17:30N 47°45' W 003°39'0 0.3
2018-Jun-19 17:01N 47°45' W 003°39'1 2.7
2018-Jun-19 16:28N 47°46' W 003°41'3 5.6
2018-Jun-19 16:00N 47°46' W 003°44'5 9.6
2018-Jun-19 15:29N 47°47' W 003°52'1 0.0
2018-Jun-18 22:53N 47°47' W 003°53'1 1.1
2018-Jun-18 22:13N 47°46' W 003°52'8 8.7
2018-Jun-18 21:19N 47°46' W 003°40'2 6.4
2018-Jun-18 21:00N 47°46' W 003°37'0 0.2
2018-Jun-18 20:30N 47°46' W 003°38'3 5.9
2018-Jun-18 20:01N 47°45' W 003°34'1 1.6
2018-Jun-18 19:31N 47°45' W 003°34'2 3.9
2018-Jun-18 19:00N 47°46' W 003°37'2 3.3
2018-Jun-18 18:29N 47°46' W 003°40'0 0.1
2018-Jun-18 18:00N 47°46' W 003°40'4 7.5
2018-Jun-18 17:31N 47°46' W 003°45'6 9.9
2018-Jun-18 16:53N 47°47' W 003°55'3 0.1
2018-Jun-17 22:48N 47°50' W 003°56'3 3.1
2018-Jun-17 21:58N 47°47' W 003°54'6 5.6
2018-Jun-17 20:50N 47°46' W 003°45'0 0.8
2018-Jun-17 20:26N 47°46' W 003°44'1 1.6
2018-Jun-17 19:59N 47°47' W 003°44'2 2.7
2018-Jun-17 19:23N 47°46' W 003°42'0 0.1
2018-Jun-17 18:58N 47°46' W 003°42'1 0.9
2018-Jun-17 18:25N 47°46' W 003°43'0 1.2
2018-Jun-17 18:00N 47°46' W 003°43'2 3.0
2018-Jun-17 17:19N 47°46' W 003°46'2 6.4
2018-Jun-17 16:59N 47°46' W 003°49'  
2018-Jun-14 22:58N 47°51' W 003°57'10 9.0
2018-Jun-14 21:53N 47°46' W 004°10'1 0.9
2018-Jun-14 20:53N 47°46' W 004°11'2 1.7
2018-Jun-14 19:43N 47°45' W 004°14'1 1.8
2018-Jun-14 18:58N 47°46' W 004°12'4 3.2
2018-Jun-14 17:48N 47°47' W 004°07'7 8.2
2018-Jun-14 16:58N 47°48' W 003°57'3 0.2
2018-Jun-13 21:48N 47°49' W 004°01'5 5.8
2018-Jun-13 20:59N 47°48' W 003°54'2 1.9
2018-Jun-13 19:58N 47°46' W 003°53'2 1.7
2018-Jun-13 19:04N 47°46' W 003°51'7 6.8
2018-Jun-13 17:58N 47°45' W 004°02'4 3.9
2018-Jun-13 16:53N 47°49' W 004°01'3 0.2
2018-Jun-12 21:53N 47°51' W 003°57'1 1.3
2018-Jun-12 21:00N 47°50' W 003°56'3 2.5
2018-Jun-12 19:58N 47°48' W 003°54'2 1.8
2018-Jun-12 18:58N 47°46' W 003°52'6 5.6
2018-Jun-12 17:58N 47°51' W 003°57'1 0.0
2018-Jun-11 22:06N 47°51' W 003°57'  
Track history (hours):
 
Tides and Currents Weather Stations Pressure Air Temp Water Temp Dewpoint Dewpoint Depression Visibility Wind Speed Wind Dir Waves Ship Positions

F/V Lycia

Last reported at 2018-Jun-21 21:58 UTC. Time now 2018-Jun-22 16:27 UTC.
Position N 47°49' W 003°54'.

Length 10 m.

Type: Fishing. MMSI: 228208800.

Date/timePositionNaut miles runAvg speedWind from/ knotsBaromVisibWave heightAir tempDewpointWater temp
2018-Jun-21 21:58N 47°49' W 003°54'14 9.4
2018-Jun-21 20:27N 47°44' W 003°34'3 7.8
2018-Jun-21 20:01N 47°42' W 003°30'0 0.6
2018-Jun-21 19:30N 47°42' W 003°30'1 1.1
2018-Jun-21 19:01N 47°43' W 003°30'0 0.1
2018-Jun-21 18:30N 47°43' W 003°30'0 0.2
2018-Jun-21 18:01N 47°43' W 003°30'3 5.0
2018-Jun-21 17:30N 47°45' W 003°33'3 6.6
2018-Jun-21 17:00N 47°46' W 003°38'5 9.5
2018-Jun-21 16:30N 47°46' W 003°45'3 0.2
2018-Jun-20 21:33N 47°45' W 003°40'2 9.8
2018-Jun-20 21:22N 47°44' W 003°38'4 9.7
2018-Jun-20 21:00N 47°43' W 003°33'1 1.5
2018-Jun-20 20:30N 47°43' W 003°32'0 0.9
2018-Jun-20 20:00N 47°43' W 003°31'1 1.5
2018-Jun-20 19:30N 47°43' W 003°32'5 9.1
2018-Jun-20 19:00N 47°45' W 003°38'2 4.0
2018-Jun-20 18:30N 47°46' W 003°41'1 1.7
2018-Jun-20 18:00N 47°46' W 003°40'1 2.5
2018-Jun-20 17:30N 47°45' W 003°39'2 4.9
2018-Jun-20 17:00N 47°46' W 003°42'4 8.6
2018-Jun-20 16:30N 47°47' W 003°48'4 8.4
2018-Jun-20 15:59N 47°49' W 003°54'3 0.2
2018-Jun-19 21:38N 47°52' W 003°55'6 8.3
2018-Jun-19 20:53N 47°47' W 003°50'5 8.9
2018-Jun-19 20:20N 47°46' W 003°43'0 0.3
2018-Jun-19 19:22N 47°46' W 003°43'0 0.3
2018-Jun-19 18:58N 47°46' W 003°43'2 3.4
2018-Jun-19 18:30N 47°46' W 003°40'1 2.2
2018-Jun-19 18:00N 47°45' W 003°40'1 1.2
2018-Jun-19 17:30N 47°45' W 003°39'0 0.3
2018-Jun-19 17:01N 47°45' W 003°39'1 2.7
2018-Jun-19 16:28N 47°46' W 003°41'3 5.6
2018-Jun-19 16:00N 47°46' W 003°44'5 9.6
2018-Jun-19 15:29N 47°47' W 003°52'1 0.0
2018-Jun-18 22:53N 47°47' W 003°53'1 1.1
2018-Jun-18 22:13N 47°46' W 003°52'8 8.7
2018-Jun-18 21:19N 47°46' W 003°40'2 6.4
2018-Jun-18 21:00N 47°46' W 003°37'0 0.2
2018-Jun-18 20:30N 47°46' W 003°38'3 5.9
2018-Jun-18 20:01N 47°45' W 003°34'1 1.6
2018-Jun-18 19:31N 47°45' W 003°34'2 3.9
2018-Jun-18 19:00N 47°46' W 003°37'2 3.3
2018-Jun-18 18:29N 47°46' W 003°40'0 0.1
2018-Jun-18 18:00N 47°46' W 003°40'4 7.5
2018-Jun-18 17:31N 47°46' W 003°45'6 9.9
2018-Jun-18 16:53N 47°47' W 003°55'3 0.1
2018-Jun-17 22:48N 47°50' W 003°56'3 3.1
2018-Jun-17 21:58N 47°47' W 003°54'6 5.6
2018-Jun-17 20:50N 47°46' W 003°45'0 0.8
2018-Jun-17 20:26N 47°46' W 003°44'1 1.6
2018-Jun-17 19:59N 47°47' W 003°44'2 2.7
2018-Jun-17 19:23N 47°46' W 003°42'0 0.1
2018-Jun-17 18:58N 47°46' W 003°42'1 0.9
2018-Jun-17 18:25N 47°46' W 003°43'0 1.2
2018-Jun-17 18:00N 47°46' W 003°43'2 3.0
2018-Jun-17 17:19N 47°46' W 003°46'2 6.4
2018-Jun-17 16:59N 47°46' W 003°49'  
2018-Jun-14 22:58N 47°51' W 003°57'10 9.0
2018-Jun-14 21:53N 47°46' W 004°10'1 0.9
2018-Jun-14 20:53N 47°46' W 004°11'2 1.7
2018-Jun-14 19:43N 47°45' W 004°14'1 1.8
2018-Jun-14 18:58N 47°46' W 004°12'4 3.2
2018-Jun-14 17:48N 47°47' W 004°07'7 8.2
2018-Jun-14 16:58N 47°48' W 003°57'3 0.2
2018-Jun-13 21:48N 47°49' W 004°01'5 5.8
2018-Jun-13 20:59N 47°48' W 003°54'2 1.9
2018-Jun-13 19:58N 47°46' W 003°53'2 1.7
2018-Jun-13 19:04N 47°46' W 003°51'7 6.8
2018-Jun-13 17:58N 47°45' W 004°02'4 3.9
2018-Jun-13 16:53N 47°49' W 004°01'3 0.2
2018-Jun-12 21:53N 47°51' W 003°57'1 1.3
2018-Jun-12 21:00N 47°50' W 003°56'3 2.5
2018-Jun-12 19:58N 47°48' W 003°54'2 1.8
2018-Jun-12 18:58N 47°46' W 003°52'6 5.6
2018-Jun-12 17:58N 47°51' W 003°57'1 0.0
2018-Jun-11 22:06N 47°51' W 003°57'  

Dump ship's entire track history